Time;durP1;ratioP1;P1;durP2;ratioP2;P2;SDS_P1;SDS_P2;PMS_P1;PMS_P2;Temp;Humidity;BMP_temperature;BMP_pressure;BME280_temperature;BME280_humidity;BME280_pressure;Samples;Min_cycle;Max_cycle;Signal;HPM_P1;HPM_P2
2023/09/24 00:02:11;;;;;;;3.28;1.20;;;;;;;;;;5073258;28;20386;-54
2023/09/24 00:04:40;;;;;;;3.17;1.50;;;;;;;;;;5075140;28;20047;-56
2023/09/24 00:07:10;;;;;;;3.92;1.77;;;;;;;;;;5093181;28;20048;-56
2023/09/24 00:09:38;;;;;;;2.20;1.40;;;;;;;;;;5089453;28;20502;-55
2023/09/24 00:12:08;;;;;;;4.32;2.03;;;;;;;;;;5082229;28;20048;-56
2023/09/24 00:14:35;;;;;;;3.40;1.52;;;;;;;;;;5072495;28;20052;-56
2023/09/24 00:17:02;;;;;;;2.90;1.77;;;;;;;;;;5075830;28;20043;-55
2023/09/24 00:19:28;;;;;;;3.30;1.67;;;;;;;;;;5093134;28;20386;-55
2023/09/24 00:21:57;;;;;;;3.75;1.80;;;;;;;;;;5093181;28;20047;-55
2023/09/24 00:24:24;;;;;;;3.33;2.03;;;;;;;;;;5092270;28;20071;-57
2023/09/24 00:26:53;;;;;;;3.72;1.90;;;;;;;;;;5074311;28;20060;-55
2023/09/24 00:29:19;;;;;;;3.95;2.10;;;;;;;;;;5072173;28;20424;-56
2023/09/24 00:31:46;;;;;;;7.28;2.33;;;;;;;;;;5072796;28;20063;-56
2023/09/24 00:34:13;;;;;;;8.63;2.15;;;;;;;;;;5081712;28;20048;-56
2023/09/24 00:36:40;;;;;;;2.42;1.70;;;;;;;;;;5072213;28;20075;-56
2023/09/24 00:39:10;;;;;;;3.45;1.95;;;;;;;;;;5072193;28;20065;-55
2023/09/24 00:41:38;;;;;;;3.20;1.98;;;;;;;;;;5072974;28;20052;-55
2023/09/24 00:44:11;;;;;;;3.90;1.73;;;;;;;;;;5070182;28;20060;-56
2023/09/24 00:46:37;;;;;;;5.50;1.85;;;;;;;;;;5071730;28;20401;-55
2023/09/24 00:49:04;;;;;;;4.20;1.95;;;;;;;;;;5072279;28;20048;-56
2023/09/24 00:51:31;;;;;;;2.70;1.65;;;;;;;;;;5072462;28;20401;-56
2023/09/24 00:53:59;;;;;;;2.40;1.50;;;;;;;;;;5072172;28;20060;-56
2023/09/24 00:56:28;;;;;;;3.40;2.00;;;;;;;;;;5083078;28;20044;-55
2023/09/24 00:58:56;;;;;;;2.60;1.50;;;;;;;;;;5092775;28;20489;-56
2023/09/24 01:01:25;;;;;;;13.70;2.75;;;;;;;;;;5092286;28;20055;-55
2023/09/24 01:03:52;;;;;;;5.25;1.83;;;;;;;;;;5092426;28;20051;-54
2023/09/24 01:06:23;;;;;;;4.32;2.08;;;;;;;;;;5092358;28;20055;-54
2023/09/24 01:08:50;;;;;;;4.43;2.05;;;;;;;;;;5079414;28;20055;-55
2023/09/24 01:11:19;;;;;;;5.80;2.05;;;;;;;;;;5076451;28;20056;-56
2023/09/24 01:13:46;;;;;;;3.45;1.75;;;;;;;;;;5076138;28;20053;-56
2023/09/24 01:16:13;;;;;;;3.20;1.80;;;;;;;;;;5075979;28;20075;-55
2023/09/24 01:18:42;;;;;;;5.82;2.35;;;;;;;;;;5075910;28;20048;-56
2023/09/24 01:21:15;;;;;;;3.60;1.85;;;;;;;;;;5076200;28;20053;-54
2023/09/24 01:23:45;;;;;;;3.05;1.67;;;;;;;;;;5076257;28;20482;-54
2023/09/24 01:26:12;;;;;;;3.67;2.15;;;;;;;;;;5086590;28;20052;-55
2023/09/24 01:28:40;;;;;;;2.80;1.83;;;;;;;;;;5092010;28;20044;-54
2023/09/24 01:31:09;;;;;;;5.40;2.25;;;;;;;;;;5075893;28;20056;-54
2023/09/24 01:33:40;;;;;;;3.58;1.63;;;;;;;;;;5075834;28;20056;-55
2023/09/24 01:36:08;;;;;;;5.68;2.33;;;;;;;;;;5075258;28;20044;-55
2023/09/24 01:38:34;;;;;;;18.85;3.55;;;;;;;;;;5075619;28;20063;-56
2023/09/24 01:41:07;;;;;;;6.40;1.90;;;;;;;;;;5075742;28;20053;-53
2023/09/24 01:43:34;;;;;;;5.05;2.28;;;;;;;;;;5075161;28;20064;-54
2023/09/24 01:46:05;;;;;;;3.95;2.45;;;;;;;;;;5075218;28;20052;-55
2023/09/24 01:48:33;;;;;;;3.10;1.92;;;;;;;;;;5075868;28;20052;-55
2023/09/24 01:51:00;;;;;;;3.45;1.83;;;;;;;;;;5074929;28;20052;-55
2023/09/24 01:53:27;;;;;;;2.80;1.83;;;;;;;;;;5075273;28;20375;-54
2023/09/24 01:55:54;;;;;;;3.08;1.75;;;;;;;;;;5074865;28;20051;-56
2023/09/24 01:58:26;;;;;;;4.18;1.90;;;;;;;;;;5075217;28;20056;-55
2023/09/24 02:00:55;;;;;;;4.22;2.13;;;;;;;;;;5074625;28;20072;-54
2023/09/24 02:03:21;;;;;;;3.22;1.92;;;;;;;;;;5075287;28;20051;-56
2023/09/24 02:05:48;;;;;;;3.47;2.08;;;;;;;;;;5074911;28;20056;-55
2023/09/24 02:08:16;;;;;;;3.17;1.70;;;;;;;;;;5074836;28;20052;-55
2023/09/24 02:10:43;;;;;;;2.35;1.65;;;;;;;;;;5081073;28;20055;-54
2023/09/24 02:13:11;;;;;;;3.58;1.77;;;;;;;;;;5078989;28;20059;-55
2023/09/24 02:15:39;;;;;;;3.47;2.45;;;;;;;;;;5075138;28;20147;-55
2023/09/24 02:18:06;;;;;;;3.55;1.73;;;;;;;;;;5074510;28;20504;-55
2023/09/24 02:20:33;;;;;;;4.47;1.90;;;;;;;;;;5074439;28;20052;-55
2023/09/24 02:23:01;;;;;;;4.57;1.90;;;;;;;;;;5075196;28;20059;-55
2023/09/24 02:25:29;;;;;;;3.15;1.42;;;;;;;;;;5081367;28;20051;-55
2023/09/24 02:27:56;;;;;;;4.97;2.03;;;;;;;;;;5095226;28;20055;-56
2023/09/24 02:30:23;;;;;;;4.10;1.80;;;;;;;;;;5095139;28;20059;-54
2023/09/24 02:32:52;;;;;;;2.65;1.75;;;;;;;;;;5094968;28;20048;-55
2023/09/24 02:35:18;;;;;;;4.00;1.80;;;;;;;;;;5094776;28;20059;-54
2023/09/24 02:37:47;;;;;;;4.22;2.03;;;;;;;;;;5095204;28;20052;-55
2023/09/24 02:40:18;;;;;;;4.28;2.13;;;;;;;;;;5085864;28;20101;-54
2023/09/24 02:42:46;;;;;;;3.15;1.65;;;;;;;;;;5074503;28;20486;-55
2023/09/24 02:45:15;;;;;;;3.30;1.80;;;;;;;;;;5074207;28;20547;-55
2023/09/24 02:47:42;;;;;;;3.22;2.00;;;;;;;;;;5074517;28;20075;-53
2023/09/24 02:50:13;;;;;;;5.07;1.98;;;;;;;;;;5074110;28;20052;-55
2023/09/24 02:52:40;;;;;;;3.75;1.90;;;;;;;;;;5074394;28;20052;-54
2023/09/24 02:55:07;;;;;;;2.70;1.50;;;;;;;;;;5074008;28;20048;-54
2023/09/24 02:57:35;;;;;;;3.53;1.88;;;;;;;;;;5091665;28;20386;-55
2023/09/24 03:00:10;;;;;;;3.83;2.33;;;;;;;;;;5094374;28;20048;-55
2023/09/24 03:02:38;;;;;;;4.78;1.98;;;;;;;;;;5093872;28;20044;-55
2023/09/24 03:05:08;;;;;;;3.03;1.83;;;;;;;;;;5094423;28;20074;-55
2023/09/24 03:07:36;;;;;;;3.28;1.52;;;;;;;;;;5094364;28;20055;-55
2023/09/24 03:10:05;;;;;;;4.00;2.33;;;;;;;;;;5090795;28;20520;-55
2023/09/24 03:12:32;;;;;;;5.82;1.90;;;;;;;;;;5080190;28;20048;-55
2023/09/24 03:14:59;;;;;;;3.13;1.92;;;;;;;;;;5094176;28;20401;-55
2023/09/24 03:17:26;;;;;;;3.30;1.88;;;;;;;;;;5094136;28;20385;-56
2023/09/24 03:19:53;;;;;;;4.85;2.17;;;;;;;;;;5093889;28;20485;-55
2023/09/24 03:22:20;;;;;;;3.83;1.60;;;;;;;;;;5094104;28;20491;-55
2023/09/24 03:24:48;;;;;;;3.28;2.08;;;;;;;;;;5093719;28;20516;-55
2023/09/24 03:27:15;;;;;;;3.65;1.73;;;;;;;;;;5074287;28;20048;-54
2023/09/24 03:29:42;;;;;;;2.92;1.75;;;;;;;;;;5093859;28;20408;-55
2023/09/24 03:32:09;;;;;;;3.70;1.83;;;;;;;;;;5093272;28;20478;-55
2023/09/24 03:34:36;;;;;;;2.75;1.52;;;;;;;;;;5088404;28;20059;-54
2023/09/24 03:37:03;;;;;;;3.85;2.05;;;;;;;;;;5093549;28;20060;-55
2023/09/24 03:39:29;;;;;;;3.55;2.15;;;;;;;;;;5093662;28;20052;-54
2023/09/24 03:41:58;;;;;;;2.75;1.65;;;;;;;;;;5078436;28;20049;-54
2023/09/24 03:44:24;;;;;;;4.72;2.10;;;;;;;;;;5081419;28;20502;-54
2023/09/24 03:46:51;;;;;;;3.50;1.73;;;;;;;;;;5093793;28;20389;-55
2023/09/24 03:49:18;;;;;;;3.42;2.13;;;;;;;;;;5093636;28;20453;-55
2023/09/24 03:51:45;;;;;;;4.53;2.08;;;;;;;;;;5093565;28;20393;-55
2023/09/24 03:54:11;;;;;;;4.38;2.20;;;;;;;;;;5093414;28;20409;-55
2023/09/24 03:56:39;;;;;;;4.05;1.55;;;;;;;;;;5078865;28;20486;-54
2023/09/24 03:59:07;;;;;;;3.97;1.80;;;;;;;;;;5073070;28;20049;-55
2023/09/24 04:01:34;;;;;;;3.15;1.80;;;;;;;;;;5073236;28;20057;-55
2023/09/24 04:04:02;;;;;;;4.18;1.92;;;;;;;;;;5072122;28;20056;-55
2023/09/24 04:06:29;;;;;;;3.42;1.85;;;;;;;;;;5072703;28;20052;-56
2023/09/24 04:08:55;;;;;;;3.00;1.90;;;;;;;;;;5072627;28;20045;-55
2023/09/24 04:11:22;;;;;;;2.72;2.05;;;;;;;;;;5072821;28;20052;-53
2023/09/24 04:13:49;;;;;;;3.08;1.88;;;;;;;;;;5083127;28;20400;-54
2023/09/24 04:16:17;;;;;;;4.75;1.92;;;;;;;;;;5093151;28;20483;-55
2023/09/24 04:18:44;;;;;;;5.15;2.10;;;;;;;;;;5093046;28;20052;-55
2023/09/24 04:21:15;;;;;;;3.17;2.10;;;;;;;;;;5092931;28;22038;-54
2023/09/24 04:23:42;;;;;;;4.65;2.15;;;;;;;;;;5083515;28;20053;-55
2023/09/24 04:26:09;;;;;;;4.95;2.03;;;;;;;;;;5078658;28;20052;-54
2023/09/24 04:28:39;;;;;;;4.20;2.63;;;;;;;;;;5093036;28;20051;-54
2023/09/24 04:31:05;;;;;;;4.22;1.98;;;;;;;;;;5092897;28;20078;-55
2023/09/24 04:33:34;;;;;;;5.07;2.60;;;;;;;;;;5092051;28;20052;-55
2023/09/24 04:36:01;;;;;;;4.13;2.42;;;;;;;;;;5092810;28;20477;-54
2023/09/24 04:38:28;;;;;;;4.30;2.15;;;;;;;;;;5091769;28;20044;-55
2023/09/24 04:40:55;;;;;;;5.32;2.95;;;;;;;;;;5085999;28;20052;-55
2023/09/24 04:43:24;;;;;;;4.20;1.80;;;;;;;;;;5071469;28;20059;-53
2023/09/24 04:45:51;;;;;;;10.55;2.90;;;;;;;;;;5077003;28;20049;-55
2023/09/24 04:48:18;;;;;;;4.88;1.90;;;;;;;;;;5076961;28;20044;-54
2023/09/24 04:50:47;;;;;;;6.28;1.98;;;;;;;;;;5076464;28;20063;-56
2023/09/24 04:53:14;;;;;;;3.85;2.20;;;;;;;;;;5086034;28;20386;-55
2023/09/24 04:55:43;;;;;;;3.85;2.15;;;;;;;;;;5090244;28;20067;-55
2023/09/24 04:58:12;;;;;;;3.97;2.07;;;;;;;;;;5076931;28;20049;-55
2023/09/24 05:00:39;;;;;;;4.35;2.30;;;;;;;;;;5076833;28;20475;-54
2023/09/24 05:03:09;;;;;;;5.90;2.75;;;;;;;;;;5076803;28;20490;-55
2023/09/24 05:05:36;;;;;;;3.47;2.25;;;;;;;;;;5075351;28;20048;-55
2023/09/24 05:08:04;;;;;;;4.18;2.33;;;;;;;;;;5076815;28;20045;-55
2023/09/24 05:10:32;;;;;;;3.80;2.28;;;;;;;;;;5078888;28;20055;-56
2023/09/24 05:13:03;;;;;;;3.28;1.80;;;;;;;;;;5096708;28;20056;-55
2023/09/24 05:15:30;;;;;;;3.53;1.88;;;;;;;;;;5096604;28;20055;-53
2023/09/24 05:18:00;;;;;;;4.82;2.38;;;;;;;;;;5096618;28;20071;-55
2023/09/24 05:20:30;;;;;;;4.57;2.05;;;;;;;;;;5096496;28;20505;-55
2023/09/24 05:22:56;;;;;;;;;;;;;;;;;;5097173;28;20378;-55
2023/09/24 05:25:24;;;;;;;3.42;1.70;;;;;;;;;;5088037;28;19927;-55
2023/09/24 05:27:51;;;;;;;5.60;2.35;;;;;;;;;;5076174;28;20059;-54
2023/09/24 05:30:18;;;;;;;5.20;2.15;;;;;;;;;;5075540;28;20059;-53
2023/09/24 05:32:45;;;;;;;5.97;2.78;;;;;;;;;;5083759;28;20386;-55
2023/09/24 05:35:12;;;;;;;4.07;1.95;;;;;;;;;;5092611;28;20044;-55
2023/09/24 05:37:39;;;;;;;4.57;2.35;;;;;;;;;;5096197;28;20070;-55
2023/09/24 05:40:06;;;;;;;4.43;2.33;;;;;;;;;;5082183;28;20052;-55
2023/09/24 05:42:34;;;;;;;4.90;2.33;;;;;;;;;;5076686;28;20048;-55
2023/09/24 05:45:01;;;;;;;5.72;2.55;;;;;;;;;;5076908;28;20044;-56
2023/09/24 05:47:31;;;;;;;3.63;1.80;;;;;;;;;;5082970;28;20048;-55
2023/09/24 05:49:57;;;;;;;3.13;2.15;;;;;;;;;;5075816;28;20049;-54
2023/09/24 05:52:27;;;;;;;2.95;2.13;;;;;;;;;;5077610;28;20075;-55
2023/09/24 05:54:54;;;;;;;4.05;1.75;;;;;;;;;;5080265;28;20053;-54
2023/09/24 05:57:22;;;;;;;3.40;2.03;;;;;;;;;;5078544;28;20060;-55
2023/09/24 05:59:53;;;;;;;4.95;1.90;;;;;;;;;;5093223;28;20048;-55
2023/09/24 06:02:25;;;;;;;5.03;2.75;;;;;;;;;;5095315;28;20052;-54
2023/09/24 06:04:54;;;;;;;4.20;2.17;;;;;;;;;;5095551;28;20063;-55
2023/09/24 06:07:21;;;;;;;4.05;1.88;;;;;;;;;;5088650;28;20044;-56
2023/09/24 06:09:48;;;;;;;3.83;1.98;;;;;;;;;;5090381;28;20052;-54
2023/09/24 06:12:16;;;;;;;3.33;1.98;;;;;;;;;;5075228;28;20056;-55
2023/09/24 06:14:46;;;;;;;3.58;2.13;;;;;;;;;;5074680;28;20053;-55
2023/09/24 06:17:14;;;;;;;3.83;2.00;;;;;;;;;;5074657;28;20048;-56
2023/09/24 06:19:41;;;;;;;4.68;2.38;;;;;;;;;;5077654;28;20044;-55
2023/09/24 06:22:11;;;;;;;3.72;2.13;;;;;;;;;;5084292;28;20048;-55
2023/09/24 06:24:38;;;;;;;4.45;1.98;;;;;;;;;;5085427;28;20063;-55
2023/09/24 06:27:05;;;;;;;4.38;1.98;;;;;;;;;;5081136;28;20052;-55
2023/09/24 06:29:37;;;;;;;5.78;3.00;;;;;;;;;;5074908;28;20052;-55
2023/09/24 06:32:04;;;;;;;4.53;2.95;;;;;;;;;;5090144;28;20048;-54
2023/09/24 06:34:35;;;;;;;7.03;3.60;;;;;;;;;;5082458;28;20431;-55
2023/09/24 06:37:02;;;;;;;6.75;3.03;;;;;;;;;;5075367;28;20052;-55
2023/09/24 06:39:37;;;;;;;3.78;2.15;;;;;;;;;;5081250;28;20048;-55
2023/09/24 06:42:07;;;;;;;5.93;2.72;;;;;;;;;;5083336;28;20067;-54
2023/09/24 06:44:34;;;;;;;4.00;2.53;;;;;;;;;;5082609;28;20055;-55
2023/09/24 06:46:59;;;;;;;3.63;2.05;;;;;;;;;;5089908;28;20056;-54
2023/09/24 06:49:26;;;;;;;3.65;2.28;;;;;;;;;;5075351;28;20404;-45
2023/09/24 06:51:54;;;;;;;3.42;2.35;;;;;;;;;;5074991;28;20415;-48
2023/09/24 06:54:21;;;;;;;4.15;2.45;;;;;;;;;;5074583;28;20056;-45
2023/09/24 06:56:48;;;;;;;4.05;2.10;;;;;;;;;;5076033;28;20043;-45
2023/09/24 06:59:15;;;;;;;4.30;2.20;;;;;;;;;;5078525;28;20090;-60
2023/09/24 07:01:42;;;;;;;3.40;2.03;;;;;;;;;;5084007;28;20481;-59
2023/09/24 07:04:09;;;;;;;2.95;1.95;;;;;;;;;;5075688;28;20051;-59
2023/09/24 07:06:36;;;;;;;6.50;2.60;;;;;;;;;;5080689;28;20049;-60
2023/09/24 07:09:05;;;;;;;4.32;2.38;;;;;;;;;;5075168;28;20049;-60
2023/09/24 07:11:36;;;;;;;3.50;1.85;;;;;;;;;;5076734;28;20409;-60
2023/09/24 07:14:04;;;;;;;3.03;2.13;;;;;;;;;;5080376;28;20508;-59
2023/09/24 07:16:31;;;;;;;5.00;2.25;;;;;;;;;;5073585;28;20478;-61
2023/09/24 07:18:58;;;;;;;3.22;1.90;;;;;;;;;;5074939;28;20497;-60
2023/09/24 07:21:26;;;;;;;3.72;2.55;;;;;;;;;;5084436;28;20389;-60
2023/09/24 07:23:54;;;;;;;4.97;2.58;;;;;;;;;;5076193;28;20055;-60
2023/09/24 07:26:22;;;;;;;3.33;2.13;;;;;;;;;;5082766;28;20056;-60
2023/09/24 07:28:49;;;;;;;2.97;2.17;;;;;;;;;;5073837;28;20052;-60
2023/09/24 07:31:19;;;;;;;2.92;1.70;;;;;;;;;;5080116;28;20079;-61
2023/09/24 07:33:46;;;;;;;2.95;1.92;;;;;;;;;;5073349;28;20048;-60
2023/09/24 07:36:13;;;;;;;3.42;2.03;;;;;;;;;;5082821;28;20469;-60
2023/09/24 07:38:40;;;;;;;3.00;1.60;;;;;;;;;;5084770;28;20059;-61
2023/09/24 07:41:07;;;;;;;3.45;1.98;;;;;;;;;;5075747;28;20056;-61
2023/09/24 07:43:35;;;;;;;2.70;1.65;;;;;;;;;;5073258;28;20056;-58
2023/09/24 07:46:02;;;;;;;4.38;2.30;;;;;;;;;;5076891;28;20075;-58
2023/09/24 07:48:29;;;;;;;3.85;1.80;;;;;;;;;;5085396;28;20060;-60
2023/09/24 07:50:56;;;;;;;3.92;2.50;;;;;;;;;;5072747;28;20052;-60
2023/09/24 07:53:23;;;;;;;4.40;2.50;;;;;;;;;;5073924;28;20063;-59
2023/09/24 07:55:56;;;;;;;3.42;2.17;;;;;;;;;;5087720;28;20048;-60
2023/09/24 07:58:23;;;;;;;3.03;1.80;;;;;;;;;;5081091;28;20055;-60
2023/09/24 08:00:52;;;;;;;3.30;2.08;;;;;;;;;;5082861;28;20484;-59
2023/09/24 08:03:19;;;;;;;2.90;1.60;;;;;;;;;;5072440;28;20509;-60
2023/09/24 08:05:46;;;;;;;2.67;1.90;;;;;;;;;;5072758;28;20504;-59
2023/09/24 08:08:13;;;;;;;5.05;1.80;;;;;;;;;;5075678;28;20409;-59
2023/09/24 08:10:39;;;;;;;3.60;1.95;;;;;;;;;;5088886;28;20405;-58
2023/09/24 08:13:06;;;;;;;2.60;1.33;;;;;;;;;;5076501;28;20051;-59
2023/09/24 08:15:34;;;;;;;5.38;2.20;;;;;;;;;;5086361;28;20063;-58
2023/09/24 08:18:08;;;;;;;3.28;1.73;;;;;;;;;;5087333;28;20056;-58
2023/09/24 08:20:35;;;;;;;2.20;1.60;;;;;;;;;;5081191;28;20398;-59
2023/09/24 08:23:02;;;;;;;2.35;1.52;;;;;;;;;;5082920;28;20468;-59
2023/09/24 08:25:29;;;;;;;2.97;1.40;;;;;;;;;;5072854;28;20049;-59
2023/09/24 08:27:56;;;;;;;3.38;1.33;;;;;;;;;;5078041;28;20048;-59
2023/09/24 08:30:23;;;;;;;2.35;1.05;;;;;;;;;;5081108;28;20052;-59
2023/09/24 08:32:50;;;;;;;2.53;1.23;;;;;;;;;;5081068;28;20056;-59
2023/09/24 08:35:18;;;;;;;2.63;1.00;;;;;;;;;;5073716;28;20049;-58
2023/09/24 08:37:45;;;;;;;;;;;;;;;;;;5073306;28;20053;-60
2023/09/24 08:40:12;;;;;;;3.15;1.08;;;;;;;;;;5075622;28;19924;-58
2023/09/24 08:42:39;;;;;;;1.60;1.10;;;;;;;;;;5074104;28;20062;-59
2023/09/24 08:45:10;;;;;;;2.47;1.40;;;;;;;;;;5076949;28;20048;-59
2023/09/24 08:47:38;;;;;;;1.85;1.00;;;;;;;;;;5072699;28;20052;-59
2023/09/24 08:50:05;;;;;;;2.57;0.93;;;;;;;;;;5088110;28;20044;-58
2023/09/24 08:52:34;;;;;;;2.35;1.15;;;;;;;;;;5076224;28;20835;-58
2023/09/24 08:55:02;;;;;;;1.83;1.00;;;;;;;;;;5075175;28;20045;-60
2023/09/24 08:57:30;;;;;;;2.38;0.80;;;;;;;;;;5074638;28;20052;-59
2023/09/24 08:59:57;;;;;;;1.90;0.83;;;;;;;;;;5073855;28;20060;-59
2023/09/24 09:02:24;;;;;;;1.85;0.90;;;;;;;;;;5074246;28;20057;-60
2023/09/24 09:04:51;;;;;;;1.25;0.80;;;;;;;;;;5080958;28;20059;-60
2023/09/24 09:07:18;;;;;;;1.45;0.70;;;;;;;;;;5080632;28;20406;-60
2023/09/24 09:09:55;;;;;;;1.30;0.70;;;;;;;;;;5072307;28;20048;-60
2023/09/24 09:12:22;;;;;;;1.63;0.80;;;;;;;;;;5074150;28;20055;-59
2023/09/24 09:14:49;;;;;;;1.25;0.60;;;;;;;;;;5074701;28;20520;-60
2023/09/24 09:17:15;;;;;;;1.45;0.65;;;;;;;;;;5073355;28;20048;-59
2023/09/24 09:19:51;;;;;;;2.15;0.98;;;;;;;;;;5088298;28;20056;-59
2023/09/24 09:22:18;;;;;;;2.45;0.88;;;;;;;;;;5075942;28;20053;-60
2023/09/24 09:24:46;;;;;;;1.85;0.77;;;;;;;;;;5071635;28;20055;-60
2023/09/24 09:27:14;;;;;;;5.20;0.90;;;;;;;;;;5081304;28;20405;-60
2023/09/24 09:29:41;;;;;;;1.35;0.60;;;;;;;;;;5071489;28;20048;-60
2023/09/24 09:32:08;;;;;;;2.40;1.00;;;;;;;;;;5076132;28;20048;-60
2023/09/24 09:34:35;;;;;;;1.55;0.70;;;;;;;;;;5075281;28;20052;-60
2023/09/24 09:37:17;;;;;;;3.67;0.90;;;;;;;;;;5076324;28;20056;-60
2023/09/24 09:39:44;;;;;;;2.42;0.98;;;;;;;;;;5076287;28;20048;-60
2023/09/24 09:42:12;;;;;;;1.33;0.80;;;;;;;;;;5079698;28;20049;-60
2023/09/24 09:44:42;;;;;;;1.40;0.67;;;;;;;;;;5075184;28;20544;-60
2023/09/24 09:47:09;;;;;;;1.55;0.60;;;;;;;;;;5087876;28;20488;-61
2023/09/24 09:49:38;;;;;;;2.35;0.85;;;;;;;;;;5081232;28;20053;-60
2023/09/24 09:52:06;;;;;;;2.35;0.52;;;;;;;;;;5079327;28;20512;-60
2023/09/24 09:54:34;;;;;;;1.05;0.60;;;;;;;;;;5087055;28;20056;-60
2023/09/24 09:57:01;;;;;;;2.70;0.85;;;;;;;;;;5076270;28;20048;-60
2023/09/24 09:59:28;;;;;;;1.98;1.00;;;;;;;;;;5090978;28;20052;-60
2023/09/24 10:01:57;;;;;;;1.13;0.47;;;;;;;;;;5089067;28;20126;-60
2023/09/24 10:04:25;;;;;;;;;;;;;;;;;;5089052;28;20063;-60
2023/09/24 10:06:52;;;;;;;;;;;;;;;;;;5083766;28;19921;-61
2023/09/24 10:09:34;;;;;;;1.05;0.73;;;;;;;;;;5077452;28;20285;-60
2023/09/24 10:12:06;;;;;;;2.13;0.68;;;;;;;;;;5080800;28;20052;-60
2023/09/24 10:14:34;;;;;;;1.25;0.50;;;;;;;;;;5080728;28;20063;-60
2023/09/24 10:17:19;;;;;;;1.15;0.60;;;;;;;;;;5095571;28;20059;-60
2023/09/24 10:19:49;;;;;;;1.80;0.82;;;;;;;;;;5095103;28;20052;-60
2023/09/24 10:22:29;;;;;;;1.65;0.73;;;;;;;;;;5095265;28;20047;-60
2023/09/24 10:24:56;;;;;;;1.80;0.50;;;;;;;;;;5095615;28;20405;-60
2023/09/24 10:27:26;;;;;;;0.82;0.50;;;;;;;;;;5080927;28;20053;-60
2023/09/24 10:30:10;;;;;;;0.57;0.43;;;;;;;;;;5075014;28;20057;-60
2023/09/24 10:32:50;;;;;;;1.40;0.95;;;;;;;;;;5075220;28;20079;-58
2023/09/24 10:35:18;;;;;;;1.33;0.65;;;;;;;;;;5074528;28;20060;-58
2023/09/24 10:37:44;;;;;;;;;;;;;;;;;;5075449;28;20053;-58
2023/09/24 10:40:13;;;;;;;0.63;0.40;;;;;;;;;;5074627;28;19921;-58
2023/09/24 10:42:42;;;;;;;1.83;0.60;;;;;;;;;;5074585;28;20061;-58
2023/09/24 10:45:24;;;;;;;3.13;0.60;;;;;;;;;;5074241;28;20052;-59
2023/09/24 10:47:51;;;;;;;1.75;0.80;;;;;;;;;;5074611;28;20048;-59
2023/09/24 10:50:20;;;;;;;1.85;0.70;;;;;;;;;;5074593;28;20056;-59
2023/09/24 10:52:48;;;;;;;0.90;0.50;;;;;;;;;;5074568;28;20056;-59
2023/09/24 10:55:14;;;;;;;3.53;0.80;;;;;;;;;;5074398;28;20055;-58
2023/09/24 10:57:43;;;;;;;2.38;0.60;;;;;;;;;;5090251;28;20118;-59
2023/09/24 11:00:14;;;;;;;1.23;0.70;;;;;;;;;;5094903;28;20056;-61
2023/09/24 11:02:41;;;;;;;1.15;0.50;;;;;;;;;;5094118;28;20048;-57
2023/09/24 11:05:08;;;;;;;1.40;0.60;;;;;;;;;;5094623;28;20063;-58
2023/09/24 11:07:36;;;;;;;3.72;0.65;;;;;;;;;;5094423;28;20059;-60
2023/09/24 11:10:03;;;;;;;;;;;;;;;;;;5095184;28;20056;-58
2023/09/24 11:12:30;;;;;;;1.23;0.63;;;;;;;;;;5077558;28;20293;-59
2023/09/24 11:14:56;;;;;;;2.88;0.85;;;;;;;;;;5077785;28;20054;-59
2023/09/24 11:17:23;;;;;;;1.55;0.55;;;;;;;;;;5077164;28;20055;-59
2023/09/24 11:19:51;;;;;;;1.20;0.60;;;;;;;;;;5073982;28;20055;-59
2023/09/24 11:22:18;;;;;;;1.17;0.67;;;;;;;;;;5073761;28;20048;-59
2023/09/24 11:24:45;;;;;;;1.30;0.70;;;;;;;;;;5073997;28;20053;-59
2023/09/24 11:27:12;;;;;;;1.35;0.50;;;;;;;;;;5074369;28;20413;-58
2023/09/24 11:29:39;;;;;;;1.17;0.60;;;;;;;;;;5073695;28;20053;-58
2023/09/24 11:32:06;;;;;;;0.75;0.43;;;;;;;;;;5073713;28;20052;-59
2023/09/24 11:34:33;;;;;;;0.90;0.45;;;;;;;;;;5079652;28;20056;-58
2023/09/24 11:36:59;;;;;;;1.17;0.50;;;;;;;;;;5082253;28;20063;-58
2023/09/24 11:39:26;;;;;;;1.00;0.50;;;;;;;;;;5073232;28;20053;-59
2023/09/24 11:41:55;;;;;;;1.05;0.50;;;;;;;;;;5077636;28;20051;-59
2023/09/24 11:44:22;;;;;;;1.77;0.80;;;;;;;;;;5087428;28;20048;-59
2023/09/24 11:46:49;;;;;;;2.03;0.70;;;;;;;;;;5074026;28;20052;-59
2023/09/24 11:49:16;;;;;;;1.10;0.60;;;;;;;;;;5087807;28;20052;-59
2023/09/24 11:51:42;;;;;;;1.50;0.60;;;;;;;;;;5073705;28;20049;-59
2023/09/24 11:54:13;;;;;;;2.70;0.70;;;;;;;;;;5073744;28;20048;-59
2023/09/24 11:56:40;;;;;;;0.98;0.50;;;;;;;;;;5074825;28;20516;-59
2023/09/24 11:59:08;;;;;;;1.42;0.55;;;;;;;;;;5092173;28;20056;-59
2023/09/24 12:01:34;;;;;;;;;;;;;;;;;;5073550;28;20055;-59
2023/09/24 12:04:01;;;;;;;1.85;0.70;;;;;;;;;;5079869;28;20278;-60
2023/09/24 12:06:28;;;;;;;2.08;0.95;;;;;;;;;;5077094;28;20059;-60
2023/09/24 12:08:55;;;;;;;1.13;0.73;;;;;;;;;;5076039;28;20052;-59
2023/09/24 12:11:22;;;;;;;1.40;0.68;;;;;;;;;;5078979;28;20045;-60
2023/09/24 12:13:50;;;;;;;1.17;0.60;;;;;;;;;;5072608;28;20048;-59
2023/09/24 12:16:19;;;;;;;2.28;0.70;;;;;;;;;;5073851;28;20056;-59
2023/09/24 12:18:46;;;;;;;1.33;0.57;;;;;;;;;;5076044;28;20067;-59
2023/09/24 12:21:13;;;;;;;1.67;0.50;;;;;;;;;;5074017;28;20049;-59
2023/09/24 12:23:40;;;;;;;0.90;0.60;;;;;;;;;;5073728;28;20049;-59
2023/09/24 12:26:07;;;;;;;1.07;0.57;;;;;;;;;;5079233;28;20496;-59
2023/09/24 12:28:34;;;;;;;1.80;0.50;;;;;;;;;;5078819;28;20480;-59
2023/09/24 12:31:00;;;;;;;1.58;0.60;;;;;;;;;;5083780;28;20550;-59
2023/09/24 12:33:29;;;;;;;0.70;0.55;;;;;;;;;;5072738;28;20405;-58
2023/09/24 12:35:55;;;;;;;;;;;;;;;;;;5078773;28;20517;-58
2023/09/24 12:38:22;;;;;;;0.98;0.60;;;;;;;;;;5072828;28;19921;-59
2023/09/24 12:40:49;;;;;;;1.73;0.68;;;;;;;;;;5073392;28;20053;-58
2023/09/24 12:43:16;;;;;;;1.37;0.77;;;;;;;;;;5072476;28;20378;-58
2023/09/24 12:45:43;;;;;;;1.33;0.65;;;;;;;;;;5072512;28;20478;-58
2023/09/24 12:48:09;;;;;;;1.70;0.70;;;;;;;;;;5072944;28;20057;-58
2023/09/24 12:50:38;;;;;;;3.50;0.70;;;;;;;;;;5072715;28;20059;-57
2023/09/24 12:53:05;;;;;;;;;;;;;;;;;;5074348;28;20044;-58
2023/09/24 12:55:31;;;;;;;0.88;0.43;;;;;;;;;;5071447;28;20301;-59
2023/09/24 12:57:58;;;;;;;1.50;0.90;;;;;;;;;;5073316;28;20405;-58
2023/09/24 13:00:25;;;;;;;1.42;0.80;;;;;;;;;;5071136;28;20056;-59
2023/09/24 13:02:52;;;;;;;0.95;0.80;;;;;;;;;;5070470;28;20044;-58
2023/09/24 13:05:21;;;;;;;1.48;0.50;;;;;;;;;;5071013;28;20063;-58
2023/09/24 13:07:49;;;;;;;1.40;0.70;;;;;;;;;;5075113;28;20530;-58
2023/09/24 13:10:15;;;;;;;;;;;;;;;;;;5084833;28;20059;-58
2023/09/24 13:12:42;;;;;;;0.82;0.52;;;;;;;;;;5092684;28;19920;-58
2023/09/24 13:15:10;;;;;;;1.67;0.60;;;;;;;;;;5094772;28;20053;-57
2023/09/24 13:17:36;;;;;;;1.13;0.70;;;;;;;;;;5080172;28;20059;-58
2023/09/24 13:20:04;;;;;;;1.55;0.70;;;;;;;;;;5077248;28;20044;-57
2023/09/24 13:22:31;;;;;;;0.65;0.47;;;;;;;;;;5078403;28;20056;-57
2023/09/24 13:24:59;;;;;;;1.10;0.70;;;;;;;;;;5082626;28;20063;-57
2023/09/24 13:27:26;;;;;;;1.15;0.43;;;;;;;;;;5077712;28;20057;-57
2023/09/24 13:29:53;;;;;;;0.98;0.60;;;;;;;;;;5076573;28;20044;-58
2023/09/24 13:32:20;;;;;;;3.70;1.00;;;;;;;;;;5081445;28;20059;-58
2023/09/24 13:34:47;;;;;;;1.63;0.60;;;;;;;;;;5076534;28;20052;-58
2023/09/24 13:37:16;;;;;;;1.00;0.60;;;;;;;;;;5075846;28;20055;-58
2023/09/24 13:39:43;;;;;;;0.98;0.52;;;;;;;;;;5075670;28;20412;-58
2023/09/24 13:42:11;;;;;;;1.00;0.50;;;;;;;;;;5077940;28;20052;-57
2023/09/24 13:44:38;;;;;;;1.55;0.57;;;;;;;;;;5074465;28;20052;-57
2023/09/24 13:47:05;;;;;;;1.00;0.60;;;;;;;;;;5089853;28;20401;-58
2023/09/24 13:49:35;;;;;;;1.10;0.60;;;;;;;;;;5075864;28;21390;-57
2023/09/24 13:52:03;;;;;;;1.67;0.82;;;;;;;;;;5084470;28;20489;-58
2023/09/24 13:54:31;;;;;;;1.67;0.50;;;;;;;;;;5082576;28;20052;-58
2023/09/24 13:56:57;;;;;;;1.27;0.60;;;;;;;;;;5077739;28;20055;-57
2023/09/24 13:59:26;;;;;;;0.95;0.60;;;;;;;;;;5079341;28;20048;-58
2023/09/24 14:01:52;;;;;;;1.33;0.65;;;;;;;;;;5073518;28;20048;-58
2023/09/24 14:04:19;;;;;;;1.33;0.70;;;;;;;;;;5090267;28;20481;-58
2023/09/24 14:06:47;;;;;;;1.10;0.60;;;;;;;;;;5083028;28;20119;-57
2023/09/24 14:14:43;;;;;;;0.90;0.57;;;;;;;;;;5080600;28;20056;-58
2023/09/24 14:17:10;;;;;;;1.00;0.52;;;;;;;;;;5078167;28;20048;-58
2023/09/24 14:19:38;;;;;;;1.95;0.60;;;;;;;;;;5081686;28;20412;-57
2023/09/24 14:22:05;;;;;;;1.42;0.75;;;;;;;;;;5081264;28;20064;-58
2023/09/24 14:24:31;;;;;;;0.95;0.50;;;;;;;;;;5074303;28;20516;-58
2023/09/24 14:27:00;;;;;;;0.75;0.35;;;;;;;;;;5075288;28;20370;-58
2023/09/24 14:29:27;;;;;;;1.77;0.60;;;;;;;;;;5075935;28;20053;-58
2023/09/24 14:31:55;;;;;;;0.80;0.50;;;;;;;;;;5086029;28;20048;-58
2023/09/24 14:34:22;;;;;;;1.83;0.60;;;;;;;;;;5090703;28;20044;-58
2023/09/24 14:36:49;;;;;;;0.90;0.47;;;;;;;;;;5074895;28;20390;-58
2023/09/24 14:39:16;;;;;;;1.63;0.70;;;;;;;;;;5075224;28;20115;-58
2023/09/24 14:41:42;;;;;;;1.00;0.50;;;;;;;;;;5074643;28;20067;-58
2023/09/24 14:44:10;;;;;;;1.48;0.95;;;;;;;;;;5087487;28;20059;-58
2023/09/24 14:46:38;;;;;;;1.02;0.50;;;;;;;;;;5080220;28;20056;-58
2023/09/24 14:49:07;;;;;;;0.80;0.50;;;;;;;;;;5076657;28;20053;-58
2023/09/24 14:51:35;;;;;;;1.20;0.70;;;;;;;;;;5078546;28;20056;-58
2023/09/24 14:54:02;;;;;;;3.58;0.60;;;;;;;;;;5080675;28;20059;-58
2023/09/24 14:56:28;;;;;;;1.08;0.60;;;;;;;;;;5079768;28;20075;-58